Terminal Aerodrome Forecast
Issued by NWS

Home | Current Version | Previous Version | Text Only | Print | Product List | Glossary On
Versions: 1 2 3 4 5 6 7 8 9 10 11 12 13 14 15 16 17 18 19
000
FTUS45 KLKN 261726
TAFEKO
TAF
KEKO 261726Z 2618/2718 28006KT P6SM VCTS BKN050CB OVC080
      TEMPO 2618/2622 35010G25KT P6SM -TSRAGS OVC050CB
     FM270000 VRB03KT P6SM VCSH BKN050 BKN080
     FM270500 VRB02KT P6SM FEW060 SCT100 BKN180=

USA.gov is the U.S. government's official web portal to all federal, state and local government web resources and services.